sensor_id;sensor_type;location;lat;lon;timestamp;P1;durP1;ratioP1;P2;durP2;ratioP2
14770;SDS011;7477;45.222;5.688;2024-03-22T00:00:37;3.30;;;2.03;;
14770;SDS011;7477;45.222;5.688;2024-03-22T00:03:56;3.28;;;1.92;;
14770;SDS011;7477;45.222;5.688;2024-03-22T00:07:18;4.55;;;2.72;;
14770;SDS011;7477;45.222;5.688;2024-03-22T00:10:37;9.15;;;3.05;;
14770;SDS011;7477;45.222;5.688;2024-03-22T00:13:57;5.53;;;2.40;;
14770;SDS011;7477;45.222;5.688;2024-03-22T00:17:17;2.70;;;1.60;;
14770;SDS011;7477;45.222;5.688;2024-03-22T00:20:36;3.55;;;1.75;;
14770;SDS011;7477;45.222;5.688;2024-03-22T00:23:56;3.78;;;1.90;;
14770;SDS011;7477;45.222;5.688;2024-03-22T00:27:16;2.22;;;1.73;;
14770;SDS011;7477;45.222;5.688;2024-03-22T00:30:35;4.57;;;1.60;;
14770;SDS011;7477;45.222;5.688;2024-03-22T00:33:54;4.03;;;1.65;;
14770;SDS011;7477;45.222;5.688;2024-03-22T00:37:13;3.25;;;1.60;;
14770;SDS011;7477;45.222;5.688;2024-03-22T00:40:33;3.15;;;1.90;;
14770;SDS011;7477;45.222;5.688;2024-03-22T00:43:52;3.28;;;2.28;;
14770;SDS011;7477;45.222;5.688;2024-03-22T00:47:12;3.55;;;1.70;;
14770;SDS011;7477;45.222;5.688;2024-03-22T00:50:31;4.28;;;1.98;;
14770;SDS011;7477;45.222;5.688;2024-03-22T00:53:51;3.10;;;1.70;;
14770;SDS011;7477;45.222;5.688;2024-03-22T00:57:10;4.38;;;1.77;;
14770;SDS011;7477;45.222;5.688;2024-03-22T01:00:31;3.55;;;2.00;;
14770;SDS011;7477;45.222;5.688;2024-03-22T01:03:50;4.38;;;1.60;;
14770;SDS011;7477;45.222;5.688;2024-03-22T01:07:09;1.88;;;1.52;;
14770;SDS011;7477;45.222;5.688;2024-03-22T01:10:29;2.15;;;1.60;;
14770;SDS011;7477;45.222;5.688;2024-03-22T01:13:48;2.88;;;2.03;;
14770;SDS011;7477;45.222;5.688;2024-03-22T01:17:07;1.63;;;1.52;;
14770;SDS011;7477;45.222;5.688;2024-03-22T01:20:26;3.08;;;1.75;;
14770;SDS011;7477;45.222;5.688;2024-03-22T01:23:45;3.78;;;1.77;;
14770;SDS011;7477;45.222;5.688;2024-03-22T01:27:05;5.53;;;2.08;;
14770;SDS011;7477;45.222;5.688;2024-03-22T01:30:24;4.82;;;1.95;;
14770;SDS011;7477;45.222;5.688;2024-03-22T01:33:47;3.67;;;1.80;;
14770;SDS011;7477;45.222;5.688;2024-03-22T01:37:06;2.80;;;1.75;;
14770;SDS011;7477;45.222;5.688;2024-03-22T01:40:25;1.70;;;1.45;;
14770;SDS011;7477;45.222;5.688;2024-03-22T01:43:44;3.08;;;2.08;;
14770;SDS011;7477;45.222;5.688;2024-03-22T01:47:03;3.92;;;1.77;;
14770;SDS011;7477;45.222;5.688;2024-03-22T01:50:23;3.55;;;1.88;;
14770;SDS011;7477;45.222;5.688;2024-03-22T01:53:42;2.20;;;1.73;;
14770;SDS011;7477;45.222;5.688;2024-03-22T01:57:02;2.70;;;1.40;;
14770;SDS011;7477;45.222;5.688;2024-03-22T02:00:21;2.92;;;1.77;;
14770;SDS011;7477;45.222;5.688;2024-03-22T02:03:40;1.60;;;1.50;;
14770;SDS011;7477;45.222;5.688;2024-03-22T02:06:59;2.13;;;1.65;;
14770;SDS011;7477;45.222;5.688;2024-03-22T02:10:18;2.03;;;1.60;;
14770;SDS011;7477;45.222;5.688;2024-03-22T02:13:38;2.72;;;1.77;;
14770;SDS011;7477;45.222;5.688;2024-03-22T02:16:57;2.58;;;2.10;;
14770;SDS011;7477;45.222;5.688;2024-03-22T02:20:16;3.10;;;2.05;;
14770;SDS011;7477;45.222;5.688;2024-03-22T02:23:36;3.17;;;2.00;;
14770;SDS011;7477;45.222;5.688;2024-03-22T02:26:56;2.05;;;1.85;;
14770;SDS011;7477;45.222;5.688;2024-03-22T02:30:18;4.70;;;2.63;;
14770;SDS011;7477;45.222;5.688;2024-03-22T02:33:37;3.40;;;2.22;;
14770;SDS011;7477;45.222;5.688;2024-03-22T02:36:57;3.67;;;2.03;;
14770;SDS011;7477;45.222;5.688;2024-03-22T02:40:16;4.70;;;2.30;;
14770;SDS011;7477;45.222;5.688;2024-03-22T02:43:35;5.63;;;2.70;;
14770;SDS011;7477;45.222;5.688;2024-03-22T02:46:54;4.15;;;2.15;;
14770;SDS011;7477;45.222;5.688;2024-03-22T02:50:13;2.70;;;2.35;;
14770;SDS011;7477;45.222;5.688;2024-03-22T02:53:32;3.20;;;2.20;;
14770;SDS011;7477;45.222;5.688;2024-03-22T02:56:51;2.00;;;1.80;;
14770;SDS011;7477;45.222;5.688;2024-03-22T03:00:11;4.22;;;2.10;;
14770;SDS011;7477;45.222;5.688;2024-03-22T03:03:31;2.10;;;1.90;;
14770;SDS011;7477;45.222;5.688;2024-03-22T03:06:50;4.82;;;2.30;;
14770;SDS011;7477;45.222;5.688;2024-03-22T03:10:09;2.53;;;1.95;;
14770;SDS011;7477;45.222;5.688;2024-03-22T03:13:29;3.03;;;1.98;;
14770;SDS011;7477;45.222;5.688;2024-03-22T03:16:48;2.53;;;1.75;;
14770;SDS011;7477;45.222;5.688;2024-03-22T03:20:07;5.18;;;1.70;;
14770;SDS011;7477;45.222;5.688;2024-03-22T03:23:29;4.40;;;2.20;;
14770;SDS011;7477;45.222;5.688;2024-03-22T03:26:48;3.53;;;1.98;;
14770;SDS011;7477;45.222;5.688;2024-03-22T03:30:07;3.47;;;2.00;;
14770;SDS011;7477;45.222;5.688;2024-03-22T03:33:27;3.83;;;1.77;;
14770;SDS011;7477;45.222;5.688;2024-03-22T03:36:46;3.35;;;1.80;;
14770;SDS011;7477;45.222;5.688;2024-03-22T03:40:06;2.20;;;1.90;;
14770;SDS011;7477;45.222;5.688;2024-03-22T03:43:26;3.53;;;2.38;;
14770;SDS011;7477;45.222;5.688;2024-03-22T03:46:45;1.65;;;1.55;;
14770;SDS011;7477;45.222;5.688;2024-03-22T03:50:04;3.72;;;2.13;;
14770;SDS011;7477;45.222;5.688;2024-03-22T03:53:23;1.83;;;1.73;;
14770;SDS011;7477;45.222;5.688;2024-03-22T03:56:43;2.40;;;1.92;;
14770;SDS011;7477;45.222;5.688;2024-03-22T04:00:02;2.05;;;1.85;;
14770;SDS011;7477;45.222;5.688;2024-03-22T04:03:23;2.25;;;1.90;;
14770;SDS011;7477;45.222;5.688;2024-03-22T04:06:43;2.90;;;2.05;;
14770;SDS011;7477;45.222;5.688;2024-03-22T04:10:03;2.78;;;2.05;;
14770;SDS011;7477;45.222;5.688;2024-03-22T04:13:26;3.55;;;2.15;;
14770;SDS011;7477;45.222;5.688;2024-03-22T04:16:46;2.10;;;1.90;;
14770;SDS011;7477;45.222;5.688;2024-03-22T04:20:05;2.08;;;1.75;;
14770;SDS011;7477;45.222;5.688;2024-03-22T04:23:25;4.47;;;2.20;;
14770;SDS011;7477;45.222;5.688;2024-03-22T04:26:45;4.55;;;2.10;;
14770;SDS011;7477;45.222;5.688;2024-03-22T04:30:04;3.00;;;2.10;;
14770;SDS011;7477;45.222;5.688;2024-03-22T04:33:24;3.63;;;2.30;;
14770;SDS011;7477;45.222;5.688;2024-03-22T04:36:43;2.70;;;2.20;;
14770;SDS011;7477;45.222;5.688;2024-03-22T04:40:03;3.70;;;2.55;;
14770;SDS011;7477;45.222;5.688;2024-03-22T04:43:23;4.25;;;2.63;;
14770;SDS011;7477;45.222;5.688;2024-03-22T04:46:43;4.97;;;2.97;;
14770;SDS011;7477;45.222;5.688;2024-03-22T04:50:03;5.05;;;2.58;;
14770;SDS011;7477;45.222;5.688;2024-03-22T04:53:23;3.83;;;2.58;;
14770;SDS011;7477;45.222;5.688;2024-03-22T04:56:42;3.67;;;2.50;;
14770;SDS011;7477;45.222;5.688;2024-03-22T05:00:01;6.75;;;2.50;;
14770;SDS011;7477;45.222;5.688;2024-03-22T05:03:22;4.72;;;2.40;;
14770;SDS011;7477;45.222;5.688;2024-03-22T05:06:41;3.75;;;2.05;;
14770;SDS011;7477;45.222;5.688;2024-03-22T05:10:00;3.67;;;2.42;;
14770;SDS011;7477;45.222;5.688;2024-03-22T05:13:20;2.13;;;1.80;;
14770;SDS011;7477;45.222;5.688;2024-03-22T05:16:39;2.72;;;2.10;;
14770;SDS011;7477;45.222;5.688;2024-03-22T05:19:58;5.65;;;2.20;;
14770;SDS011;7477;45.222;5.688;2024-03-22T05:23:18;3.97;;;1.90;;
14770;SDS011;7477;45.222;5.688;2024-03-22T05:26:37;2.15;;;1.83;;
14770;SDS011;7477;45.222;5.688;2024-03-22T05:29:56;8.05;;;2.00;;
14770;SDS011;7477;45.222;5.688;2024-03-22T05:33:15;2.97;;;2.05;;
14770;SDS011;7477;45.222;5.688;2024-03-22T05:36:34;2.03;;;1.73;;
14770;SDS011;7477;45.222;5.688;2024-03-22T05:39:54;3.55;;;1.75;;
14770;SDS011;7477;45.222;5.688;2024-03-22T05:43:14;1.90;;;1.45;;
14770;SDS011;7477;45.222;5.688;2024-03-22T05:46:33;5.50;;;2.08;;
14770;SDS011;7477;45.222;5.688;2024-03-22T05:49:52;2.63;;;1.70;;
14770;SDS011;7477;45.222;5.688;2024-03-22T05:53:11;2.67;;;1.70;;
14770;SDS011;7477;45.222;5.688;2024-03-22T05:56:31;1.67;;;1.17;;
14770;SDS011;7477;45.222;5.688;2024-03-22T05:59:50;4.53;;;1.92;;
14770;SDS011;7477;45.222;5.688;2024-03-22T06:03:09;2.83;;;1.80;;
14770;SDS011;7477;45.222;5.688;2024-03-22T06:06:28;2.20;;;1.80;;
14770;SDS011;7477;45.222;5.688;2024-03-22T06:09:47;2.83;;;1.70;;
14770;SDS011;7477;45.222;5.688;2024-03-22T06:13:07;2.20;;;1.67;;
14770;SDS011;7477;45.222;5.688;2024-03-22T06:16:26;4.72;;;2.13;;
14770;SDS011;7477;45.222;5.688;2024-03-22T06:19:45;5.43;;;2.17;;
14770;SDS011;7477;45.222;5.688;2024-03-22T06:23:04;2.65;;;2.30;;
14770;SDS011;7477;45.222;5.688;2024-03-22T06:26:24;3.05;;;2.63;;
14770;SDS011;7477;45.222;5.688;2024-03-22T06:29:43;3.35;;;2.38;;
14770;SDS011;7477;45.222;5.688;2024-03-22T06:33:02;2.40;;;2.20;;
14770;SDS011;7477;45.222;5.688;2024-03-22T06:36:23;2.83;;;2.13;;
14770;SDS011;7477;45.222;5.688;2024-03-22T06:39:42;4.72;;;2.30;;
14770;SDS011;7477;45.222;5.688;2024-03-22T06:43:01;4.43;;;2.42;;
14770;SDS011;7477;45.222;5.688;2024-03-22T06:46:20;3.90;;;2.65;;
14770;SDS011;7477;45.222;5.688;2024-03-22T06:49:39;4.75;;;2.35;;
14770;SDS011;7477;45.222;5.688;2024-03-22T06:52:58;2.65;;;2.10;;
14770;SDS011;7477;45.222;5.688;2024-03-22T06:56:17;4.50;;;2.38;;
14770;SDS011;7477;45.222;5.688;2024-03-22T06:59:37;8.70;;;2.40;;
14770;SDS011;7477;45.222;5.688;2024-03-22T07:02:56;6.47;;;2.38;;
14770;SDS011;7477;45.222;5.688;2024-03-22T07:06:16;4.82;;;2.60;;
14770;SDS011;7477;45.222;5.688;2024-03-22T07:09:35;4.25;;;2.45;;
14770;SDS011;7477;45.222;5.688;2024-03-22T07:12:54;7.88;;;2.30;;
14770;SDS011;7477;45.222;5.688;2024-03-22T07:16:13;3.17;;;1.92;;
14770;SDS011;7477;45.222;5.688;2024-03-22T07:19:33;2.65;;;2.20;;
14770;SDS011;7477;45.222;5.688;2024-03-22T07:22:53;6.93;;;2.33;;
14770;SDS011;7477;45.222;5.688;2024-03-22T07:26:12;4.53;;;2.00;;
14770;SDS011;7477;45.222;5.688;2024-03-22T07:29:31;3.45;;;2.20;;
14770;SDS011;7477;45.222;5.688;2024-03-22T07:32:54;5.28;;;2.40;;
14770;SDS011;7477;45.222;5.688;2024-03-22T07:36:15;2.63;;;2.42;;
14770;SDS011;7477;45.222;5.688;2024-03-22T07:39:36;4.53;;;2.70;;
14770;SDS011;7477;45.222;5.688;2024-03-22T07:42:55;3.17;;;1.95;;
14770;SDS011;7477;45.222;5.688;2024-03-22T07:46:14;2.22;;;1.83;;
14770;SDS011;7477;45.222;5.688;2024-03-22T07:49:33;3.83;;;2.25;;
14770;SDS011;7477;45.222;5.688;2024-03-22T07:52:52;4.78;;;3.47;;
14770;SDS011;7477;45.222;5.688;2024-03-22T07:56:12;7.03;;;3.00;;
14770;SDS011;7477;45.222;5.688;2024-03-22T07:59:32;3.47;;;2.80;;
14770;SDS011;7477;45.222;5.688;2024-03-22T08:02:51;3.53;;;2.75;;
14770;SDS011;7477;45.222;5.688;2024-03-22T08:06:11;9.32;;;3.08;;
14770;SDS011;7477;45.222;5.688;2024-03-22T08:09:30;6.05;;;2.90;;
14770;SDS011;7477;45.222;5.688;2024-03-22T08:12:49;5.40;;;2.55;;
14770;SDS011;7477;45.222;5.688;2024-03-22T08:16:08;7.68;;;2.95;;
14770;SDS011;7477;45.222;5.688;2024-03-22T08:19:28;4.63;;;2.90;;
14770;SDS011;7477;45.222;5.688;2024-03-22T08:22:47;5.72;;;2.88;;
14770;SDS011;7477;45.222;5.688;2024-03-22T08:26:06;9.80;;;2.60;;
14770;SDS011;7477;45.222;5.688;2024-03-22T08:29:25;6.13;;;2.65;;
14770;SDS011;7477;45.222;5.688;2024-03-22T08:32:44;4.80;;;2.80;;
14770;SDS011;7477;45.222;5.688;2024-03-22T08:36:04;5.80;;;3.42;;
14770;SDS011;7477;45.222;5.688;2024-03-22T08:39:23;4.85;;;2.35;;
14770;SDS011;7477;45.222;5.688;2024-03-22T08:42:43;8.48;;;3.08;;
14770;SDS011;7477;45.222;5.688;2024-03-22T08:46:02;5.80;;;3.00;;
14770;SDS011;7477;45.222;5.688;2024-03-22T08:49:22;4.95;;;2.97;;
14770;SDS011;7477;45.222;5.688;2024-03-22T08:52:42;5.80;;;3.10;;
14770;SDS011;7477;45.222;5.688;2024-03-22T08:56:02;3.03;;;2.75;;
14770;SDS011;7477;45.222;5.688;2024-03-22T08:59:21;4.30;;;2.53;;
14770;SDS011;7477;45.222;5.688;2024-03-22T09:02:43;3.03;;;1.90;;
14770;SDS011;7477;45.222;5.688;2024-03-22T09:06:02;2.47;;;2.05;;
14770;SDS011;7477;45.222;5.688;2024-03-22T09:09:22;2.40;;;2.20;;
14770;SDS011;7477;45.222;5.688;2024-03-22T09:12:41;2.40;;;1.77;;
14770;SDS011;7477;45.222;5.688;2024-03-22T09:16:00;3.50;;;3.10;;
14770;SDS011;7477;45.222;5.688;2024-03-22T09:19:20;2.28;;;2.08;;
14770;SDS011;7477;45.222;5.688;2024-03-22T09:22:40;2.58;;;2.10;;
14770;SDS011;7477;45.222;5.688;2024-03-22T09:25:59;4.35;;;2.65;;
14770;SDS011;7477;45.222;5.688;2024-03-22T09:29:19;3.28;;;2.83;;
14770;SDS011;7477;45.222;5.688;2024-03-22T09:32:38;2.78;;;1.92;;
14770;SDS011;7477;45.222;5.688;2024-03-22T09:35:57;4.68;;;1.85;;
14770;SDS011;7477;45.222;5.688;2024-03-22T09:39:17;2.47;;;1.92;;
14770;SDS011;7477;45.222;5.688;2024-03-22T09:42:37;3.38;;;2.10;;
14770;SDS011;7477;45.222;5.688;2024-03-22T09:46:01;2.50;;;1.90;;
14770;SDS011;7477;45.222;5.688;2024-03-22T09:49:20;3.42;;;1.90;;
14770;SDS011;7477;45.222;5.688;2024-03-22T09:52:42;2.85;;;1.88;;
14770;SDS011;7477;45.222;5.688;2024-03-22T09:56:02;3.25;;;2.50;;
14770;SDS011;7477;45.222;5.688;2024-03-22T09:59:22;4.22;;;2.25;;
14770;SDS011;7477;45.222;5.688;2024-03-22T10:02:42;7.82;;;2.20;;
14770;SDS011;7477;45.222;5.688;2024-03-22T10:06:01;2.10;;;1.90;;
14770;SDS011;7477;45.222;5.688;2024-03-22T10:09:27;3.50;;;2.47;;
14770;SDS011;7477;45.222;5.688;2024-03-22T10:12:51;2.53;;;2.00;;
14770;SDS011;7477;45.222;5.688;2024-03-22T10:16:11;3.30;;;2.25;;
14770;SDS011;7477;45.222;5.688;2024-03-22T10:19:31;4.57;;;2.20;;
14770;SDS011;7477;45.222;5.688;2024-03-22T10:22:56;2.55;;;2.00;;
14770;SDS011;7477;45.222;5.688;2024-03-22T10:26:18;2.90;;;2.25;;
14770;SDS011;7477;45.222;5.688;2024-03-22T10:29:37;2.97;;;2.08;;
14770;SDS011;7477;45.222;5.688;2024-03-22T10:32:56;4.18;;;2.15;;
14770;SDS011;7477;45.222;5.688;2024-03-22T10:36:17;3.05;;;1.80;;
14770;SDS011;7477;45.222;5.688;2024-03-22T10:39:38;2.80;;;1.85;;
14770;SDS011;7477;45.222;5.688;2024-03-22T10:43:00;2.13;;;1.90;;
14770;SDS011;7477;45.222;5.688;2024-03-22T10:46:21;1.98;;;1.60;;
14770;SDS011;7477;45.222;5.688;2024-03-22T10:49:47;3.40;;;1.90;;
14770;SDS011;7477;45.222;5.688;2024-03-22T10:53:12;4.18;;;1.92;;
14770;SDS011;7477;45.222;5.688;2024-03-22T10:56:37;2.20;;;1.83;;
14770;SDS011;7477;45.222;5.688;2024-03-22T10:59:57;3.45;;;1.90;;
14770;SDS011;7477;45.222;5.688;2024-03-22T11:03:16;2.75;;;2.10;;
14770;SDS011;7477;45.222;5.688;2024-03-22T11:06:39;4.63;;;2.22;;
14770;SDS011;7477;45.222;5.688;2024-03-22T11:10:02;7.13;;;1.85;;
14770;SDS011;7477;45.222;5.688;2024-03-22T11:13:25;3.20;;;1.88;;
14770;SDS011;7477;45.222;5.688;2024-03-22T11:16:44;1.88;;;1.67;;
14770;SDS011;7477;45.222;5.688;2024-03-22T11:20:04;3.22;;;1.90;;
14770;SDS011;7477;45.222;5.688;2024-03-22T11:23:24;2.22;;;1.67;;
14770;SDS011;7477;45.222;5.688;2024-03-22T11:26:43;2.15;;;1.55;;
14770;SDS011;7477;45.222;5.688;2024-03-22T11:30:05;2.05;;;1.77;;
14770;SDS011;7477;45.222;5.688;2024-03-22T11:33:26;1.73;;;1.63;;
14770;SDS011;7477;45.222;5.688;2024-03-22T11:36:46;2.75;;;1.85;;
14770;SDS011;7477;45.222;5.688;2024-03-22T11:40:05;1.77;;;1.67;;
14770;SDS011;7477;45.222;5.688;2024-03-22T11:43:29;3.55;;;2.22;;
14770;SDS011;7477;45.222;5.688;2024-03-22T11:46:49;1.65;;;1.55;;
14770;SDS011;7477;45.222;5.688;2024-03-22T11:50:08;2.30;;;1.60;;
14770;SDS011;7477;45.222;5.688;2024-03-22T11:53:28;4.20;;;1.73;;
14770;SDS011;7477;45.222;5.688;2024-03-22T11:56:49;2.45;;;1.40;;
14770;SDS011;7477;45.222;5.688;2024-03-22T12:00:08;2.35;;;2.05;;
14770;SDS011;7477;45.222;5.688;2024-03-22T12:03:28;1.55;;;1.45;;
14770;SDS011;7477;45.222;5.688;2024-03-22T12:06:47;2.47;;;2.05;;
14770;SDS011;7477;45.222;5.688;2024-03-22T12:10:07;2.17;;;1.98;;
14770;SDS011;7477;45.222;5.688;2024-03-22T12:13:27;1.75;;;1.50;;
14770;SDS011;7477;45.222;5.688;2024-03-22T12:16:46;2.42;;;2.08;;
14770;SDS011;7477;45.222;5.688;2024-03-22T12:20:06;4.55;;;1.95;;
14770;SDS011;7477;45.222;5.688;2024-03-22T12:23:27;1.50;;;1.40;;
14770;SDS011;7477;45.222;5.688;2024-03-22T12:26:47;5.88;;;1.90;;
14770;SDS011;7477;45.222;5.688;2024-03-22T12:30:06;2.15;;;1.92;;
14770;SDS011;7477;45.222;5.688;2024-03-22T12:33:27;1.60;;;1.50;;
14770;SDS011;7477;45.222;5.688;2024-03-22T12:36:45;2.00;;;1.27;;
14770;SDS011;7477;45.222;5.688;2024-03-22T12:40:05;2.50;;;1.80;;
14770;SDS011;7477;45.222;5.688;2024-03-22T12:43:27;2.35;;;1.85;;
14770;SDS011;7477;45.222;5.688;2024-03-22T12:46:46;1.95;;;1.63;;
14770;SDS011;7477;45.222;5.688;2024-03-22T12:50:06;2.05;;;1.80;;
14770;SDS011;7477;45.222;5.688;2024-03-22T12:53:26;5.97;;;3.50;;
14770;SDS011;7477;45.222;5.688;2024-03-22T12:56:45;2.70;;;1.50;;
14770;SDS011;7477;45.222;5.688;2024-03-22T13:00:06;4.10;;;2.53;;
14770;SDS011;7477;45.222;5.688;2024-03-22T13:03:34;2.72;;;1.92;;
14770;SDS011;7477;45.222;5.688;2024-03-22T13:06:54;2.58;;;1.77;;
14770;SDS011;7477;45.222;5.688;2024-03-22T13:10:14;2.53;;;1.95;;
14770;SDS011;7477;45.222;5.688;2024-03-22T13:13:34;2.55;;;1.90;;
14770;SDS011;7477;45.222;5.688;2024-03-22T13:16:56;2.70;;;1.70;;
14770;SDS011;7477;45.222;5.688;2024-03-22T13:20:15;2.13;;;1.92;;
14770;SDS011;7477;45.222;5.688;2024-03-22T13:23:36;2.92;;;2.05;;
14770;SDS011;7477;45.222;5.688;2024-03-22T13:26:56;2.13;;;1.92;;
14770;SDS011;7477;45.222;5.688;2024-03-22T13:30:15;2.58;;;1.80;;
14770;SDS011;7477;45.222;5.688;2024-03-22T13:33:34;2.00;;;1.80;;
14770;SDS011;7477;45.222;5.688;2024-03-22T13:36:54;2.55;;;1.75;;
14770;SDS011;7477;45.222;5.688;2024-03-22T13:40:13;2.22;;;1.88;;
14770;SDS011;7477;45.222;5.688;2024-03-22T13:43:33;2.00;;;1.80;;
14770;SDS011;7477;45.222;5.688;2024-03-22T13:46:55;3.08;;;1.83;;
14770;SDS011;7477;45.222;5.688;2024-03-22T13:50:14;1.88;;;1.75;;
14770;SDS011;7477;45.222;5.688;2024-03-22T13:53:33;2.33;;;1.80;;
14770;SDS011;7477;45.222;5.688;2024-03-22T13:56:52;1.75;;;1.63;;
14770;SDS011;7477;45.222;5.688;2024-03-22T14:00:12;2.63;;;1.83;;
14770;SDS011;7477;45.222;5.688;2024-03-22T14:03:33;2.47;;;1.83;;
14770;SDS011;7477;45.222;5.688;2024-03-22T14:06:53;3.03;;;1.60;;
14770;SDS011;7477;45.222;5.688;2024-03-22T14:10:12;1.70;;;1.60;;
14770;SDS011;7477;45.222;5.688;2024-03-22T14:13:34;2.50;;;1.80;;
14770;SDS011;7477;45.222;5.688;2024-03-22T14:16:54;2.15;;;1.77;;
14770;SDS011;7477;45.222;5.688;2024-03-22T14:20:14;1.98;;;1.77;;
14770;SDS011;7477;45.222;5.688;2024-03-22T14:23:33;1.98;;;1.73;;
14770;SDS011;7477;45.222;5.688;2024-03-22T14:26:52;5.03;;;1.92;;
14770;SDS011;7477;45.222;5.688;2024-03-22T14:30:12;1.83;;;1.70;;
14770;SDS011;7477;45.222;5.688;2024-03-22T14:33:36;1.60;;;1.50;;
14770;SDS011;7477;45.222;5.688;2024-03-22T14:36:59;2.42;;;1.98;;
14770;SDS011;7477;45.222;5.688;2024-03-22T14:40:18;2.10;;;1.70;;
14770;SDS011;7477;45.222;5.688;2024-03-22T14:43:37;2.83;;;1.80;;
14770;SDS011;7477;45.222;5.688;2024-03-22T14:46:56;2.60;;;1.90;;
14770;SDS011;7477;45.222;5.688;2024-03-22T14:50:17;2.03;;;1.60;;
14770;SDS011;7477;45.222;5.688;2024-03-22T14:53:36;3.03;;;1.60;;
14770;SDS011;7477;45.222;5.688;2024-03-22T14:56:56;2.30;;;1.73;;
14770;SDS011;7477;45.222;5.688;2024-03-22T15:00:15;1.80;;;1.65;;
14770;SDS011;7477;45.222;5.688;2024-03-22T15:03:35;2.92;;;1.90;;
14770;SDS011;7477;45.222;5.688;2024-03-22T15:06:54;2.28;;;1.70;;
14770;SDS011;7477;45.222;5.688;2024-03-22T15:10:13;4.40;;;1.73;;
14770;SDS011;7477;45.222;5.688;2024-03-22T15:13:33;1.73;;;1.63;;
14770;SDS011;7477;45.222;5.688;2024-03-22T15:16:52;1.88;;;1.70;;
14770;SDS011;7477;45.222;5.688;2024-03-22T15:20:12;2.10;;;1.70;;
14770;SDS011;7477;45.222;5.688;2024-03-22T15:23:31;2.03;;;1.83;;
14770;SDS011;7477;45.222;5.688;2024-03-22T15:26:50;1.63;;;1.52;;
14770;SDS011;7477;45.222;5.688;2024-03-22T15:30:10;2.50;;;1.70;;
14770;SDS011;7477;45.222;5.688;2024-03-22T15:33:30;2.20;;;1.60;;
14770;SDS011;7477;45.222;5.688;2024-03-22T15:36:49;2.58;;;1.80;;
14770;SDS011;7477;45.222;5.688;2024-03-22T15:40:08;1.70;;;1.60;;
14770;SDS011;7477;45.222;5.688;2024-03-22T15:43:28;1.63;;;1.52;;
14770;SDS011;7477;45.222;5.688;2024-03-22T15:46:47;1.98;;;1.50;;
14770;SDS011;7477;45.222;5.688;2024-03-22T15:50:07;1.83;;;1.73;;
14770;SDS011;7477;45.222;5.688;2024-03-22T15:53:28;1.60;;;1.50;;
14770;SDS011;7477;45.222;5.688;2024-03-22T15:56:48;1.73;;;1.63;;
14770;SDS011;7477;45.222;5.688;2024-03-22T16:00:07;1.98;;;1.52;;
14770;SDS011;7477;45.222;5.688;2024-03-22T16:03:30;3.25;;;1.63;;
14770;SDS011;7477;45.222;5.688;2024-03-22T16:06:49;2.63;;;1.90;;
14770;SDS011;7477;45.222;5.688;2024-03-22T16:10:10;1.50;;;1.40;;
14770;SDS011;7477;45.222;5.688;2024-03-22T16:13:29;3.40;;;1.80;;
14770;SDS011;7477;45.222;5.688;2024-03-22T16:16:48;1.75;;;1.42;;
14770;SDS011;7477;45.222;5.688;2024-03-22T16:20:08;4.18;;;1.83;;
14770;SDS011;7477;45.222;5.688;2024-03-22T16:23:31;2.75;;;1.58;;
14770;SDS011;7477;45.222;5.688;2024-03-22T16:26:50;1.50;;;1.40;;
14770;SDS011;7477;45.222;5.688;2024-03-22T16:30:09;2.22;;;1.65;;
14770;SDS011;7477;45.222;5.688;2024-03-22T16:33:29;1.77;;;1.38;;
14770;SDS011;7477;45.222;5.688;2024-03-22T16:36:49;1.50;;;1.40;;
14770;SDS011;7477;45.222;5.688;2024-03-22T16:40:09;2.53;;;1.63;;
14770;SDS011;7477;45.222;5.688;2024-03-22T16:43:28;3.38;;;1.52;;
14770;SDS011;7477;45.222;5.688;2024-03-22T16:46:47;1.83;;;1.70;;
14770;SDS011;7477;45.222;5.688;2024-03-22T16:50:10;2.85;;;1.35;;
14770;SDS011;7477;45.222;5.688;2024-03-22T16:53:30;3.42;;;1.73;;
14770;SDS011;7477;45.222;5.688;2024-03-22T16:56:49;2.72;;;1.80;;
14770;SDS011;7477;45.222;5.688;2024-03-22T17:00:10;3.15;;;1.80;;
14770;SDS011;7477;45.222;5.688;2024-03-22T17:03:30;1.65;;;1.52;;
14770;SDS011;7477;45.222;5.688;2024-03-22T17:06:49;1.95;;;1.75;;
14770;SDS011;7477;45.222;5.688;2024-03-22T17:10:08;1.98;;;1.70;;
14770;SDS011;7477;45.222;5.688;2024-03-22T17:13:27;1.55;;;1.23;;
14770;SDS011;7477;45.222;5.688;2024-03-22T17:16:47;1.63;;;1.50;;
14770;SDS011;7477;45.222;5.688;2024-03-22T17:20:09;3.15;;;1.65;;
14770;SDS011;7477;45.222;5.688;2024-03-22T17:23:32;2.78;;;1.63;;
14770;SDS011;7477;45.222;5.688;2024-03-22T17:26:51;1.95;;;1.75;;
14770;SDS011;7477;45.222;5.688;2024-03-22T17:30:11;2.55;;;1.67;;
14770;SDS011;7477;45.222;5.688;2024-03-22T17:33:30;2.45;;;1.80;;
14770;SDS011;7477;45.222;5.688;2024-03-22T17:36:52;2.50;;;1.55;;
14770;SDS011;7477;45.222;5.688;2024-03-22T17:40:12;1.63;;;1.52;;
14770;SDS011;7477;45.222;5.688;2024-03-22T17:43:34;1.95;;;1.77;;
14770;SDS011;7477;45.222;5.688;2024-03-22T17:46:53;1.52;;;1.42;;
14770;SDS011;7477;45.222;5.688;2024-03-22T17:50:12;1.92;;;1.58;;
14770;SDS011;7477;45.222;5.688;2024-03-22T17:53:31;1.70;;;1.60;;
14770;SDS011;7477;45.222;5.688;2024-03-22T17:56:50;1.70;;;1.60;;
14770;SDS011;7477;45.222;5.688;2024-03-22T18:00:10;1.75;;;1.40;;
14770;SDS011;7477;45.222;5.688;2024-03-22T18:03:29;2.80;;;1.88;;
14770;SDS011;7477;45.222;5.688;2024-03-22T18:06:49;1.67;;;1.58;;
14770;SDS011;7477;45.222;5.688;2024-03-22T18:10:08;3.38;;;2.60;;
14770;SDS011;7477;45.222;5.688;2024-03-22T18:13:27;3.05;;;1.80;;
14770;SDS011;7477;45.222;5.688;2024-03-22T18:16:48;1.60;;;1.50;;
14770;SDS011;7477;45.222;5.688;2024-03-22T18:20:08;3.03;;;1.80;;
14770;SDS011;7477;45.222;5.688;2024-03-22T18:23:28;2.78;;;1.75;;
14770;SDS011;7477;45.222;5.688;2024-03-22T18:26:49;2.92;;;1.65;;
14770;SDS011;7477;45.222;5.688;2024-03-22T18:30:08;3.05;;;1.40;;
14770;SDS011;7477;45.222;5.688;2024-03-22T18:33:28;3.55;;;1.60;;
14770;SDS011;7477;45.222;5.688;2024-03-22T18:36:54;1.90;;;1.58;;
14770;SDS011;7477;45.222;5.688;2024-03-22T18:40:13;3.35;;;1.70;;
14770;SDS011;7477;45.222;5.688;2024-03-22T18:43:33;2.70;;;1.85;;
14770;SDS011;7477;45.222;5.688;2024-03-22T18:46:53;4.75;;;1.80;;
14770;SDS011;7477;45.222;5.688;2024-03-22T18:50:13;2.35;;;1.85;;
14770;SDS011;7477;45.222;5.688;2024-03-22T18:53:32;4.20;;;1.75;;
14770;SDS011;7477;45.222;5.688;2024-03-22T18:56:53;2.35;;;1.77;;
14770;SDS011;7477;45.222;5.688;2024-03-22T19:00:12;2.63;;;1.90;;
14770;SDS011;7477;45.222;5.688;2024-03-22T19:03:32;2.33;;;1.70;;
14770;SDS011;7477;45.222;5.688;2024-03-22T19:06:51;2.25;;;1.75;;
14770;SDS011;7477;45.222;5.688;2024-03-22T19:10:11;2.97;;;1.48;;
14770;SDS011;7477;45.222;5.688;2024-03-22T19:13:32;2.00;;;1.80;;
14770;SDS011;7477;45.222;5.688;2024-03-22T19:16:51;1.83;;;1.65;;
14770;SDS011;7477;45.222;5.688;2024-03-22T19:20:10;3.17;;;2.30;;
14770;SDS011;7477;45.222;5.688;2024-03-22T19:23:30;2.40;;;1.63;;
14770;SDS011;7477;45.222;5.688;2024-03-22T19:26:49;1.73;;;1.60;;
14770;SDS011;7477;45.222;5.688;2024-03-22T19:30:09;2.13;;;1.52;;
14770;SDS011;7477;45.222;5.688;2024-03-22T19:33:29;3.58;;;1.40;;
14770;SDS011;7477;45.222;5.688;2024-03-22T19:36:49;1.67;;;1.55;;
14770;SDS011;7477;45.222;5.688;2024-03-22T19:40:09;3.25;;;1.90;;
14770;SDS011;7477;45.222;5.688;2024-03-22T19:43:29;1.40;;;1.30;;
14770;SDS011;7477;45.222;5.688;2024-03-22T19:46:53;12.30;;;4.63;;
14770;SDS011;7477;45.222;5.688;2024-03-22T19:50:12;10.25;;;6.15;;
14770;SDS011;7477;45.222;5.688;2024-03-22T19:53:32;6.78;;;4.18;;
14770;SDS011;7477;45.222;5.688;2024-03-22T19:56:52;3.90;;;1.58;;
14770;SDS011;7477;45.222;5.688;2024-03-22T20:00:11;1.55;;;1.45;;
14770;SDS011;7477;45.222;5.688;2024-03-22T20:03:30;1.90;;;1.35;;
14770;SDS011;7477;45.222;5.688;2024-03-22T20:06:50;3.95;;;2.70;;
14770;SDS011;7477;45.222;5.688;2024-03-22T20:10:10;3.28;;;2.60;;
14770;SDS011;7477;45.222;5.688;2024-03-22T20:13:29;2.92;;;2.42;;
14770;SDS011;7477;45.222;5.688;2024-03-22T20:16:48;3.20;;;2.00;;
14770;SDS011;7477;45.222;5.688;2024-03-22T20:20:08;3.55;;;2.05;;